createdAt,value
2023-04-23T00:04:17.801Z,11.5
2023-04-23T00:09:23.912Z,12.1
2023-04-23T00:14:30.027Z,12.5
2023-04-23T00:19:36.126Z,12.5
2023-04-23T00:24:42.254Z,12.1
2023-04-23T00:29:48.344Z,12.1
2023-04-23T00:34:53.520Z,11.8
2023-04-23T00:39:59.581Z,12.5
2023-04-23T00:45:05.891Z,12.5
2023-04-23T00:50:11.797Z,11.8
2023-04-23T00:55:17.966Z,12.1
2023-04-23T01:00:24.036Z,11.8
2023-04-23T01:05:30.245Z,12.1
2023-04-23T01:10:36.225Z,12.1
2023-04-23T01:15:42.401Z,12.1
2023-04-23T01:20:48.444Z,11.8
2023-04-23T01:25:54.656Z,12.8
2023-04-23T01:31:00.669Z,11.8
2023-04-23T01:36:06.781Z,12.1
2023-04-23T01:41:11.904Z,12.1
2023-04-23T01:46:18.020Z,11.8
2023-04-23T01:51:24.120Z,11.8
2023-04-23T01:56:30.266Z,12.1
2023-04-23T02:01:36.346Z,12.8
2023-04-23T02:06:42.436Z,12.1
2023-04-23T02:11:48.562Z,12.1
2023-04-23T02:22:00.765Z,11.8
2023-04-23T02:27:06.875Z,12.1
2023-04-23T02:32:12.991Z,11.8
2023-04-23T02:37:19.169Z,11.5
2023-04-23T02:42:25.208Z,12.5
2023-04-23T02:47:30.394Z,11.8
2023-04-23T02:52:36.507Z,12.5
2023-04-23T02:57:42.546Z,12.1
2023-04-23T03:02:48.660Z,11.8
2023-04-23T03:07:54.795Z,11.5
2023-04-23T03:13:00.929Z,12.5
2023-04-23T03:18:06.024Z,11.8
2023-04-23T03:23:12.134Z,11.5
2023-04-23T03:28:18.277Z,12.1
2023-04-23T03:33:24.358Z,12.1
2023-04-23T03:38:30.448Z,12.1
2023-04-23T03:48:42.813Z,12.1
2023-04-23T03:53:48.782Z,11.5
2023-04-23T03:58:54.894Z,11.5
2023-04-23T04:04:01.000Z,12.1
2023-04-23T04:09:07.113Z,11.8
2023-04-23T04:14:13.231Z,12.1
2023-04-23T04:19:19.330Z,12.5
2023-04-23T04:24:24.490Z,12.5
2023-04-23T04:29:30.562Z,11.8
2023-04-23T04:34:36.796Z,11.8
2023-04-23T04:39:42.769Z,12.1
2023-04-23T04:44:48.984Z,11.8
2023-04-23T04:49:55.006Z,11.8
2023-04-23T04:55:01.224Z,11.8
2023-04-23T05:00:07.219Z,11.8
2023-04-23T05:05:13.327Z,12.1
2023-04-23T05:10:19.429Z,11.8
2023-04-23T05:15:25.707Z,11.5
2023-04-23T05:20:31.772Z,12.5
2023-04-23T05:25:37.762Z,11.8
2023-04-23T05:30:42.986Z,11.8
2023-04-23T05:35:49.144Z,11.5
2023-04-23T05:40:55.092Z,12.1
2023-04-23T05:46:01.222Z,11.5
2023-04-23T05:51:07.340Z,11.5
2023-04-23T05:56:13.477Z,11.8
2023-04-23T06:01:19.561Z,11.8
2023-04-23T06:06:25.735Z,11.5
2023-04-23T06:11:31.823Z,11.8
2023-04-23T06:16:37.912Z,11.5
2023-04-23T06:21:44.006Z,11.5
2023-04-23T06:26:50.178Z,11.5
2023-04-23T06:31:56.190Z,11.8
2023-04-23T06:37:01.383Z,11.5
2023-04-23T06:42:07.461Z,11.8
2023-04-23T06:47:13.545Z,11.8
2023-04-23T06:52:19.738Z,11.8
2023-04-23T06:57:25.762Z,11.5
2023-04-23T07:02:31.998Z,11.8
2023-04-23T07:07:37.998Z,11.5
2023-04-23T07:12:44.110Z,11.5
2023-04-23T07:17:50.241Z,11.5
2023-04-23T07:22:56.365Z,11.5
2023-04-23T07:28:02.506Z,11.5
2023-04-23T07:33:08.582Z,11.2
2023-04-23T07:38:14.657Z,11.8
2023-04-23T07:43:19.818Z,11.5
2023-04-23T07:48:25.903Z,11.2
2023-04-23T07:58:38.197Z,10.9
2023-04-23T08:08:50.337Z,11.8
2023-04-23T08:13:56.455Z,10.9
2023-04-23T08:19:02.539Z,11.5
2023-04-23T08:24:08.667Z,11.2
2023-04-23T08:29:14.784Z,11.5
2023-04-23T08:34:20.867Z,11.5
2023-04-23T08:39:27.085Z,11.2
2023-04-23T08:44:33.144Z,11.5
2023-04-23T08:49:38.352Z,11.5
2023-04-23T08:54:44.318Z,11.8
2023-04-23T08:59:50.541Z,11.5
2023-04-23T09:04:56.548Z,11.5
2023-04-23T09:10:02.721Z,11.5
2023-04-23T09:15:08.759Z,11.8
2023-04-23T09:20:14.960Z,11.5
2023-04-23T09:25:21.087Z,11.5
2023-04-23T09:30:27.106Z,11.2
2023-04-23T09:35:33.207Z,10.9
2023-04-23T09:40:39.383Z,11.5
2023-04-23T09:45:45.429Z,11.5
2023-04-23T09:50:51.554Z,11.8
2023-04-23T09:55:56.658Z,11.2
2023-04-23T10:01:02.760Z,10.9
2023-04-23T10:06:08.946Z,11.2
2023-04-23T10:11:15.089Z,11.8
2023-04-23T10:16:21.094Z,11.5
2023-04-23T10:21:27.247Z,11.5
2023-04-23T10:26:33.327Z,11.8
2023-04-23T10:31:39.429Z,11.5
2023-04-23T10:36:45.529Z,11.2
2023-04-23T10:41:51.647Z,11.2
2023-04-23T10:46:57.751Z,11.2
2023-04-23T10:52:03.883Z,11.2
2023-04-23T10:57:10.033Z,11.2
2023-04-23T11:02:15.130Z,11.8
2023-04-23T11:07:21.221Z,11.5
2023-04-23T11:12:27.420Z,11.8
2023-04-23T11:17:33.451Z,11.8
2023-04-23T11:22:39.555Z,11.5
2023-04-23T11:27:45.666Z,11.5
2023-04-23T11:32:51.825Z,11.5
2023-04-23T11:37:58.009Z,11.8
2023-04-23T11:43:04.006Z,11.8
2023-04-23T11:48:10.124Z,11.2
2023-04-23T11:53:16.246Z,10.9
2023-04-23T11:58:22.452Z,11.5
2023-04-23T12:03:28.471Z,11.5
2023-04-23T12:08:33.653Z,11.5
2023-04-23T12:13:39.750Z,11.5
2023-04-23T12:18:45.885Z,11.5
2023-04-23T12:23:51.928Z,11.8
2023-04-23T12:28:58.063Z,11.5
2023-04-23T12:34:04.155Z,11.2
2023-04-23T12:39:10.274Z,11.5
2023-04-23T12:44:16.386Z,11.8
2023-04-23T12:49:22.501Z,11.8
2023-04-23T12:54:28.703Z,12.1
2023-04-23T12:59:34.849Z,11.8
2023-04-23T13:04:40.847Z,12.1
2023-04-23T13:09:46.953Z,11.5
2023-04-23T13:14:52.076Z,11.5
2023-04-23T13:19:58.250Z,11.5
2023-04-23T13:25:04.308Z,11.5
2023-04-23T13:30:10.422Z,11.8
2023-04-23T13:35:16.502Z,11.8
2023-04-23T13:40:22.622Z,12.1
2023-04-23T13:45:28.737Z,12.1
2023-04-23T13:50:34.897Z,11.2
2023-04-23T13:55:40.998Z,11.8
2023-04-23T14:00:47.114Z,11.8
2023-04-23T14:05:53.180Z,12.1
2023-04-23T14:10:59.369Z,11.5
2023-04-23T14:16:06.582Z,11.8
2023-04-23T14:21:10.612Z,12.1
2023-04-23T14:26:16.660Z,12.5
2023-04-23T14:31:22.751Z,12.1
2023-04-23T14:36:28.867Z,12.1
2023-04-23T14:41:34.970Z,12.5
2023-04-23T14:46:41.104Z,12.1
2023-04-23T14:51:47.310Z,11.8
2023-04-23T14:56:53.441Z,11.8
2023-04-23T15:01:59.429Z,11.8
2023-04-23T15:07:05.587Z,12.1
2023-04-23T15:12:11.711Z,12.5
2023-04-23T15:17:17.799Z,12.1
2023-04-23T15:22:23.924Z,12.1
2023-04-23T15:27:29.075Z,12.1
2023-04-23T15:32:35.200Z,12.1
2023-04-23T15:37:41.277Z,12.1
2023-04-23T15:42:47.376Z,11.8
2023-04-23T15:47:53.494Z,12.5
2023-04-23T15:52:59.613Z,12.8
2023-04-23T15:58:05.710Z,12.1
2023-04-23T16:03:11.840Z,12.8
2023-04-23T16:08:18.074Z,12.5
2023-04-23T16:13:24.275Z,12.1
2023-04-23T16:18:30.324Z,12.8
2023-04-23T16:28:42.555Z,11.8
2023-04-23T16:38:53.747Z,12.8
2023-04-23T16:43:59.765Z,12.5
2023-04-23T16:49:06.082Z,12.5
2023-04-23T16:54:11.952Z,12.8
2023-04-23T16:59:18.188Z,12.8
2023-04-23T17:04:24.324Z,13.1
2023-04-23T17:09:30.282Z,12.8
2023-04-23T17:14:36.575Z,12.5
2023-04-23T17:19:42.686Z,12.5
2023-04-23T17:24:48.798Z,13.1
2023-04-23T17:29:54.964Z,12.5
2023-04-23T17:35:01.002Z,11.8
2023-04-23T17:40:06.191Z,12.5
2023-04-23T17:45:12.144Z,12.5
2023-04-23T17:50:18.371Z,12.5
2023-04-23T17:55:24.443Z,12.8
2023-04-23T18:00:30.478Z,12.8
2023-04-23T18:05:36.519Z,12.8
2023-04-23T18:10:42.650Z,12.8
2023-04-23T18:15:48.829Z,13.1
2023-04-23T18:20:54.967Z,12.8
2023-04-23T18:26:00.947Z,13.1
2023-04-23T18:31:07.109Z,13.4
2023-04-23T18:36:13.163Z,12.8
2023-04-23T18:41:19.360Z,12.8
2023-04-23T18:46:24.384Z,12.8
2023-04-23T18:51:30.503Z,12.5
2023-04-23T18:56:36.606Z,12.8
2023-04-23T19:01:42.772Z,12.8
2023-04-23T19:06:48.831Z,12.5
2023-04-23T19:11:54.948Z,12.8
2023-04-23T19:17:01.054Z,12.8
2023-04-23T19:22:07.141Z,13.1
2023-04-23T19:27:13.261Z,12.8
2023-04-23T19:32:19.363Z,12.5
2023-04-23T19:37:25.461Z,12.8
2023-04-23T19:42:31.573Z,13.1
2023-04-23T19:47:37.678Z,13.1
2023-04-23T19:52:44.127Z,12.8
2023-04-23T19:57:48.926Z,13.1
2023-04-23T20:02:55.023Z,13.1
2023-04-23T20:08:01.136Z,12.8
2023-04-23T20:13:07.245Z,13.1
2023-04-23T20:18:13.360Z,13.1
2023-04-23T20:23:18.481Z,13.1
2023-04-23T20:28:24.573Z,12.5
2023-04-23T20:33:30.689Z,12.8
2023-04-23T20:38:36.799Z,12.1
2023-04-23T20:43:42.906Z,12.5
2023-04-23T20:48:49.020Z,12.8
2023-04-23T20:53:55.115Z,12.8
2023-04-23T20:59:01.221Z,12.8
2023-04-23T21:04:07.344Z,13.1
2023-04-23T21:09:13.431Z,13.1
2023-04-23T21:14:19.558Z,13.1
2023-04-23T21:19:25.648Z,12.8
2023-04-23T21:24:31.790Z,13.1
2023-04-23T21:29:36.876Z,12.8
2023-04-23T21:34:42.997Z,12.8
2023-04-23T21:39:49.097Z,12.5
2023-04-23T21:44:55.217Z,12.8
2023-04-23T21:50:01.324Z,12.8
2023-04-23T21:55:07.450Z,12.8
2023-04-23T22:00:13.543Z,13.1
2023-04-23T22:05:19.650Z,12.8
2023-04-23T22:10:25.772Z,13.4
2023-04-23T22:15:31.874Z,13.1
2023-04-23T22:20:37.997Z,12.8
2023-04-23T22:25:44.090Z,12.5
2023-04-23T22:30:50.198Z,12.5
2023-04-23T22:35:55.323Z,12.8
2023-04-23T22:41:01.425Z,12.8
2023-04-23T22:46:07.535Z,12.8
2023-04-23T22:51:13.648Z,13.1
2023-04-23T22:56:19.740Z,12.8
2023-04-23T23:01:25.855Z,13.4
2023-04-23T23:06:31.965Z,12.5
2023-04-23T23:11:38.072Z,12.8
2023-04-23T23:16:44.172Z,11.5
2023-04-23T23:21:50.299Z,12.1
2023-04-23T23:26:56.401Z,12.8
2023-04-23T23:32:02.515Z,12.8
2023-04-23T23:37:08.606Z,12.8
2023-04-23T23:42:13.739Z,12.5
2023-04-23T23:47:19.877Z,12.5
2023-04-23T23:52:25.949Z,12.5
2023-04-23T23:57:32.062Z,12.5
